sensor_id;sensor_type;location;lat;lon;timestamp;pressure;altitude;pressure_sealevel;temperature;humidity
10638;BME280;47007;49.252;8.904;2024-01-30T00:00:30;101108.56;;;2.01;100.00
10638;BME280;47007;49.252;8.904;2024-01-30T00:01:13;101082.75;;;1.82;100.00
10638;BME280;47007;49.252;8.904;2024-01-30T00:01:54;101104.22;;;1.87;100.00
10638;BME280;47007;49.252;8.904;2024-01-30T00:02:36;101094.91;;;1.69;100.00
10638;BME280;47007;49.252;8.904;2024-01-30T00:03:18;101165.81;;;2.05;100.00
10638;BME280;47007;49.252;8.904;2024-01-30T00:04:00;101211.63;;;2.25;100.00
10638;BME280;47007;49.252;8.904;2024-01-30T00:04:41;101204.78;;;2.10;100.00
10638;BME280;47007;49.252;8.904;2024-01-30T00:05:23;101184.63;;;1.98;100.00
10638;BME280;47007;49.252;8.904;2024-01-30T00:06:05;101099.97;;;1.43;100.00
10638;BME280;47007;49.252;8.904;2024-01-30T00:06:47;101179.31;;;1.85;100.00
10638;BME280;47007;49.252;8.904;2024-01-30T00:07:29;101208.41;;;1.93;100.00
10638;BME280;47007;49.252;8.904;2024-01-30T00:08:10;101117.69;;;1.38;100.00
10638;BME280;47007;49.252;8.904;2024-01-30T00:08:53;101106.03;;;1.30;100.00
10638;BME280;47007;49.252;8.904;2024-01-30T00:09:35;101133.09;;;1.43;100.00
10638;BME280;47007;49.252;8.904;2024-01-30T00:10:16;101086.53;;;1.21;100.00
10638;BME280;47007;49.252;8.904;2024-01-30T00:10:59;101164.47;;;1.71;100.00
10638;BME280;47007;49.252;8.904;2024-01-30T00:11:40;101161.53;;;1.62;100.00
10638;BME280;47007;49.252;8.904;2024-01-30T00:12:22;101188.34;;;1.94;100.00
10638;BME280;47007;49.252;8.904;2024-01-30T00:13:04;101058.25;;;1.14;100.00
10638;BME280;47007;49.252;8.904;2024-01-30T00:13:45;101123.94;;;1.50;100.00
10638;BME280;47007;49.252;8.904;2024-01-30T00:14:27;101070.03;;;1.21;100.00
10638;BME280;47007;49.252;8.904;2024-01-30T00:15:09;101181.16;;;1.97;100.00
10638;BME280;47007;49.252;8.904;2024-01-30T00:15:52;101125.44;;;1.68;100.00
10638;BME280;47007;49.252;8.904;2024-01-30T00:16:34;101110.97;;;1.63;100.00
10638;BME280;47007;49.252;8.904;2024-01-30T00:17:15;101058.66;;;1.36;100.00
10638;BME280;47007;49.252;8.904;2024-01-30T00:17:57;101108.25;;;1.64;100.00
10638;BME280;47007;49.252;8.904;2024-01-30T00:18:39;101147.09;;;1.85;100.00
10638;BME280;47007;49.252;8.904;2024-01-30T00:19:21;101173.09;;;2.14;100.00
10638;BME280;47007;49.252;8.904;2024-01-30T00:20:04;101103.19;;;1.75;100.00
10638;BME280;47007;49.252;8.904;2024-01-30T00:20:50;101169.19;;;2.07;100.00
10638;BME280;47007;49.252;8.904;2024-01-30T00:21:32;101067.22;;;1.52;100.00
10638;BME280;47007;49.252;8.904;2024-01-30T00:22:14;101142.31;;;1.91;100.00
10638;BME280;47007;49.252;8.904;2024-01-30T00:22:56;101148.38;;;1.92;100.00
10638;BME280;47007;49.252;8.904;2024-01-30T00:23:38;101153.31;;;1.96;100.00
10638;BME280;47007;49.252;8.904;2024-01-30T00:24:19;101091.66;;;1.51;100.00
10638;BME280;47007;49.252;8.904;2024-01-30T00:25:01;101119.09;;;1.58;100.00
10638;BME280;47007;49.252;8.904;2024-01-30T00:25:43;101186.47;;;1.96;100.00
10638;BME280;47007;49.252;8.904;2024-01-30T00:26:25;101164.53;;;1.70;100.00
10638;BME280;47007;49.252;8.904;2024-01-30T00:27:08;101175.53;;;1.75;100.00
10638;BME280;47007;49.252;8.904;2024-01-30T00:27:49;101144.00;;;1.50;100.00
10638;BME280;47007;49.252;8.904;2024-01-30T00:28:31;101198.06;;;1.77;100.00
10638;BME280;47007;49.252;8.904;2024-01-30T00:29:13;101199.66;;;1.80;100.00
10638;BME280;47007;49.252;8.904;2024-01-30T00:30:00;101117.50;;;1.27;100.00
10638;BME280;47007;49.252;8.904;2024-01-30T00:30:42;101127.84;;;1.29;100.00
10638;BME280;47007;49.252;8.904;2024-01-30T00:31:24;101122.72;;;1.27;100.00
10638;BME280;47007;49.252;8.904;2024-01-30T00:32:06;101157.34;;;1.45;100.00
10638;BME280;47007;49.252;8.904;2024-01-30T00:32:48;101177.78;;;1.53;100.00
10638;BME280;47007;49.252;8.904;2024-01-30T00:33:30;101176.69;;;1.57;100.00
10638;BME280;47007;49.252;8.904;2024-01-30T00:34:12;101193.66;;;1.78;100.00
10638;BME280;47007;49.252;8.904;2024-01-30T00:34:54;101184.53;;;1.71;100.00
10638;BME280;47007;49.252;8.904;2024-01-30T00:35:36;101132.16;;;1.44;100.00
10638;BME280;47007;49.252;8.904;2024-01-30T00:36:17;101164.16;;;1.62;100.00
10638;BME280;47007;49.252;8.904;2024-01-30T00:36:59;101059.41;;;1.10;100.00
10638;BME280;47007;49.252;8.904;2024-01-30T00:37:41;101112.94;;;1.45;100.00
10638;BME280;47007;49.252;8.904;2024-01-30T00:38:23;101199.91;;;2.04;100.00
10638;BME280;47007;49.252;8.904;2024-01-30T00:39:04;101137.00;;;1.64;100.00
10638;BME280;47007;49.252;8.904;2024-01-30T00:39:48;101131.41;;;1.56;100.00
10638;BME280;47007;49.252;8.904;2024-01-30T00:40:30;101089.25;;;1.34;100.00
10638;BME280;47007;49.252;8.904;2024-01-30T00:41:12;101110.97;;;1.49;100.00
10638;BME280;47007;49.252;8.904;2024-01-30T00:41:54;101201.31;;;2.09;100.00
10638;BME280;47007;49.252;8.904;2024-01-30T00:42:36;101136.16;;;1.64;100.00
10638;BME280;47007;49.252;8.904;2024-01-30T00:43:17;101095.75;;;1.41;100.00
10638;BME280;47007;49.252;8.904;2024-01-30T00:43:59;101207.56;;;2.07;100.00
10638;BME280;47007;49.252;8.904;2024-01-30T00:44:41;101154.63;;;1.75;100.00
10638;BME280;47007;49.252;8.904;2024-01-30T00:45:23;101180.09;;;2.00;100.00
10638;BME280;47007;49.252;8.904;2024-01-30T00:46:05;101120.31;;;1.53;100.00
10638;BME280;47007;49.252;8.904;2024-01-30T00:46:47;101103.44;;;1.44;100.00
10638;BME280;47007;49.252;8.904;2024-01-30T00:47:28;101168.28;;;1.80;100.00
10638;BME280;47007;49.252;8.904;2024-01-30T00:48:10;101118.34;;;1.42;100.00
10638;BME280;47007;49.252;8.904;2024-01-30T00:48:52;101108.81;;;1.41;100.00
10638;BME280;47007;49.252;8.904;2024-01-30T00:49:34;101184.81;;;1.80;100.00
10638;BME280;47007;49.252;8.904;2024-01-30T00:50:16;101151.84;;;1.64;100.00
10638;BME280;47007;49.252;8.904;2024-01-30T00:50:58;101116.50;;;1.44;100.00
10638;BME280;47007;49.252;8.904;2024-01-30T00:51:39;101208.16;;;1.98;100.00
10638;BME280;47007;49.252;8.904;2024-01-30T00:52:21;101167.91;;;1.72;100.00
10638;BME280;47007;49.252;8.904;2024-01-30T00:53:03;101134.78;;;1.58;100.00
10638;BME280;47007;49.252;8.904;2024-01-30T00:53:45;101164.53;;;1.70;100.00
10638;BME280;47007;49.252;8.904;2024-01-30T00:54:27;101106.31;;;1.39;100.00
10638;BME280;47007;49.252;8.904;2024-01-30T00:55:09;101140.63;;;1.62;100.00
10638;BME280;47007;49.252;8.904;2024-01-30T00:55:50;101127.22;;;1.54;100.00
10638;BME280;47007;49.252;8.904;2024-01-30T00:56:32;101094.25;;;1.37;100.00
10638;BME280;47007;49.252;8.904;2024-01-30T00:57:14;101052.19;;;1.13;100.00
10638;BME280;47007;49.252;8.904;2024-01-30T00:57:56;101103.88;;;1.36;100.00
10638;BME280;47007;49.252;8.904;2024-01-30T00:58:38;101142.78;;;1.55;100.00
10638;BME280;47007;49.252;8.904;2024-01-30T00:59:20;101125.06;;;1.32;100.00
10638;BME280;47007;49.252;8.904;2024-01-30T01:00:02;101201.59;;;1.76;100.00
10638;BME280;47007;49.252;8.904;2024-01-30T01:00:44;101165.19;;;1.45;100.00
10638;BME280;47007;49.252;8.904;2024-01-30T01:01:26;101118.13;;;1.17;100.00
10638;BME280;47007;49.252;8.904;2024-01-30T01:02:08;101167.13;;;1.41;100.00
10638;BME280;47007;49.252;8.904;2024-01-30T01:02:50;101215.41;;;1.64;100.00
10638;BME280;47007;49.252;8.904;2024-01-30T01:03:32;101197.31;;;1.47;100.00
10638;BME280;47007;49.252;8.904;2024-01-30T01:04:14;101203.38;;;1.48;100.00
10638;BME280;47007;49.252;8.904;2024-01-30T01:04:56;101213.59;;;1.51;100.00
10638;BME280;47007;49.252;8.904;2024-01-30T01:05:37;101140.38;;;0.94;100.00
10638;BME280;47007;49.252;8.904;2024-01-30T01:06:19;101220.16;;;1.43;100.00
10638;BME280;47007;49.252;8.904;2024-01-30T01:07:01;101144.38;;;0.99;100.00
10638;BME280;47007;49.252;8.904;2024-01-30T01:07:43;101209.50;;;1.32;100.00
10638;BME280;47007;49.252;8.904;2024-01-30T01:08:25;101219.75;;;1.35;100.00
10638;BME280;47007;49.252;8.904;2024-01-30T01:09:07;101201.91;;;1.28;100.00
10638;BME280;47007;49.252;8.904;2024-01-30T01:09:49;101188.47;;;1.20;100.00
10638;BME280;47007;49.252;8.904;2024-01-30T01:10:30;101175.56;;;1.02;100.00
10638;BME280;47007;49.252;8.904;2024-01-30T01:11:12;101152.78;;;0.90;100.00
10638;BME280;47007;49.252;8.904;2024-01-30T01:11:54;101203.13;;;1.22;100.00
10638;BME280;47007;49.252;8.904;2024-01-30T01:12:36;101195.47;;;1.19;100.00
10638;BME280;47007;49.252;8.904;2024-01-30T01:13:18;101143.25;;;0.89;100.00
10638;BME280;47007;49.252;8.904;2024-01-30T01:13:59;101142.50;;;0.87;100.00
10638;BME280;47007;49.252;8.904;2024-01-30T01:14:41;101186.13;;;1.15;100.00
10638;BME280;47007;49.252;8.904;2024-01-30T01:15:23;101051.53;;;0.37;100.00
10638;BME280;47007;49.252;8.904;2024-01-30T01:16:08;101140.00;;;0.86;100.00
10638;BME280;47007;49.252;8.904;2024-01-30T01:16:50;101167.88;;;0.99;100.00
10638;BME280;47007;49.252;8.904;2024-01-30T01:17:31;101213.19;;;1.28;100.00
10638;BME280;47007;49.252;8.904;2024-01-30T01:18:13;101213.19;;;1.28;100.00
10638;BME280;47007;49.252;8.904;2024-01-30T01:18:55;101113.84;;;0.71;100.00
10638;BME280;47007;49.252;8.904;2024-01-30T01:19:37;101104.78;;;0.63;100.00
10638;BME280;47007;49.252;8.904;2024-01-30T01:20:19;101198.91;;;1.20;100.00
10638;BME280;47007;49.252;8.904;2024-01-30T01:21:00;101228.88;;;1.28;100.00
10638;BME280;47007;49.252;8.904;2024-01-30T01:21:42;101221.88;;;1.29;100.00
10638;BME280;47007;49.252;8.904;2024-01-30T01:22:24;101218.34;;;1.30;100.00
10638;BME280;47007;49.252;8.904;2024-01-30T01:23:06;101138.31;;;0.85;100.00
10638;BME280;47007;49.252;8.904;2024-01-30T01:23:48;101211.50;;;1.27;100.00
10638;BME280;47007;49.252;8.904;2024-01-30T01:24:33;101185.28;;;1.15;100.00
10638;BME280;47007;49.252;8.904;2024-01-30T01:25:14;101153.69;;;0.89;100.00
10638;BME280;47007;49.252;8.904;2024-01-30T01:25:57;101187.97;;;0.99;100.00
10638;BME280;47007;49.252;8.904;2024-01-30T01:26:42;101204.94;;;1.06;100.00
10638;BME280;47007;49.252;8.904;2024-01-30T01:27:23;101136.28;;;0.60;100.00
10638;BME280;47007;49.252;8.904;2024-01-30T01:28:05;101212.59;;;1.09;100.00
10638;BME280;47007;49.252;8.904;2024-01-30T01:28:48;101118.53;;;0.51;100.00
10638;BME280;47007;49.252;8.904;2024-01-30T01:29:29;101200.44;;;0.94;100.00
10638;BME280;47007;49.252;8.904;2024-01-30T01:30:11;101045.69;;;0.02;100.00
10638;BME280;47007;49.252;8.904;2024-01-30T01:30:56;101203.72;;;0.97;100.00
10638;BME280;47007;49.252;8.904;2024-01-30T01:31:40;101122.50;;;0.42;100.00
10638;BME280;47007;49.252;8.904;2024-01-30T01:32:25;101155.09;;;0.65;100.00
10638;BME280;47007;49.252;8.904;2024-01-30T01:33:07;101112.22;;;0.39;100.00
10638;BME280;47007;49.252;8.904;2024-01-30T01:33:49;101205.41;;;0.98;100.00
10638;BME280;47007;49.252;8.904;2024-01-30T01:34:31;101179.88;;;0.88;100.00
10638;BME280;47007;49.252;8.904;2024-01-30T01:35:13;101108.19;;;0.49;100.00
10638;BME280;47007;49.252;8.904;2024-01-30T01:35:55;101195.03;;;0.97;100.00
10638;BME280;47007;49.252;8.904;2024-01-30T01:36:37;101151.72;;;0.79;100.00
10638;BME280;47007;49.252;8.904;2024-01-30T01:37:19;101178.25;;;1.01;100.00
10638;BME280;47007;49.252;8.904;2024-01-30T01:38:03;101191.50;;;1.12;100.00
10638;BME280;47007;49.252;8.904;2024-01-30T01:38:45;101126.72;;;0.75;100.00
10638;BME280;47007;49.252;8.904;2024-01-30T01:39:27;101076.06;;;0.49;100.00
10638;BME280;47007;49.252;8.904;2024-01-30T01:40:08;101158.41;;;0.98;100.00
10638;BME280;47007;49.252;8.904;2024-01-30T01:40:50;101072.69;;;0.47;100.00
10638;BME280;47007;49.252;8.904;2024-01-30T01:41:32;101133.94;;;0.85;100.00
10638;BME280;47007;49.252;8.904;2024-01-30T01:42:14;101084.81;;;0.62;100.00
10638;BME280;47007;49.252;8.904;2024-01-30T01:42:56;101186.41;;;1.25;100.00
10638;BME280;47007;49.252;8.904;2024-01-30T01:43:38;101099.69;;;0.76;100.00
10638;BME280;47007;49.252;8.904;2024-01-30T01:44:20;101132.81;;;0.89;100.00
10638;BME280;47007;49.252;8.904;2024-01-30T01:45:02;101192.41;;;1.27;100.00
10638;BME280;47007;49.252;8.904;2024-01-30T01:45:45;101138.72;;;0.93;100.00
10638;BME280;47007;49.252;8.904;2024-01-30T01:46:27;101178.88;;;1.20;100.00
10638;BME280;47007;49.252;8.904;2024-01-30T01:47:11;101195.69;;;1.30;100.00
10638;BME280;47007;49.252;8.904;2024-01-30T01:47:53;101142.81;;;0.97;100.00
10638;BME280;47007;49.252;8.904;2024-01-30T01:48:36;101123.31;;;0.88;100.00
10638;BME280;47007;49.252;8.904;2024-01-30T01:49:19;101141.22;;;0.94;100.00
10638;BME280;47007;49.252;8.904;2024-01-30T01:50:02;101130.63;;;0.97;100.00
10638;BME280;47007;49.252;8.904;2024-01-30T01:50:44;101171.59;;;1.25;100.00
10638;BME280;47007;49.252;8.904;2024-01-30T01:51:28;101106.53;;;0.92;100.00
10638;BME280;47007;49.252;8.904;2024-01-30T01:52:11;101081.75;;;0.85;100.00
10638;BME280;47007;49.252;8.904;2024-01-30T01:52:52;101117.00;;;1.06;100.00
10638;BME280;47007;49.252;8.904;2024-01-30T01:53:36;101103.88;;;1.08;100.00
10638;BME280;47007;49.252;8.904;2024-01-30T01:54:18;101089.56;;;0.99;100.00
10638;BME280;47007;49.252;8.904;2024-01-30T01:55:00;101117.22;;;1.18;100.00
10638;BME280;47007;49.252;8.904;2024-01-30T01:55:42;101206.47;;;1.68;100.00
10638;BME280;47007;49.252;8.904;2024-01-30T01:56:24;101125.13;;;1.16;100.00
10638;BME280;47007;49.252;8.904;2024-01-30T01:57:05;101192.44;;;1.55;100.00
10638;BME280;47007;49.252;8.904;2024-01-30T01:57:47;101162.72;;;1.28;100.00
10638;BME280;47007;49.252;8.904;2024-01-30T01:58:29;101201.31;;;1.53;100.00
10638;BME280;47007;49.252;8.904;2024-01-30T01:59:11;101182.53;;;1.32;100.00
10638;BME280;47007;49.252;8.904;2024-01-30T01:59:53;101204.72;;;1.39;100.00
10638;BME280;47007;49.252;8.904;2024-01-30T02:00:36;101184.94;;;1.21;100.00
10638;BME280;47007;49.252;8.904;2024-01-30T02:01:22;101204.19;;;1.34;100.00
10638;BME280;47007;49.252;8.904;2024-01-30T02:02:05;101168.31;;;1.07;100.00
10638;BME280;47007;49.252;8.904;2024-01-30T02:02:50;101203.50;;;1.30;100.00
10638;BME280;47007;49.252;8.904;2024-01-30T02:03:34;101187.81;;;1.16;100.00
10638;BME280;47007;49.252;8.904;2024-01-30T02:04:16;101201.91;;;1.28;100.00
10638;BME280;47007;49.252;8.904;2024-01-30T02:04:58;101165.09;;;1.02;100.00
10638;BME280;47007;49.252;8.904;2024-01-30T02:05:41;101191.16;;;1.18;100.00
10638;BME280;47007;49.252;8.904;2024-01-30T02:06:23;101200.59;;;1.21;100.00
10638;BME280;47007;49.252;8.904;2024-01-30T02:07:05;101121.78;;;0.70;100.00
10638;BME280;47007;49.252;8.904;2024-01-30T02:07:47;101196.72;;;1.12;100.00
10638;BME280;47007;49.252;8.904;2024-01-30T02:08:29;101102.97;;;0.49;100.00
10638;BME280;47007;49.252;8.904;2024-01-30T02:09:11;101187.38;;;0.94;100.00
10638;BME280;47007;49.252;8.904;2024-01-30T02:09:52;101180.31;;;0.96;100.00
10638;BME280;47007;49.252;8.904;2024-01-30T02:10:34;101132.53;;;0.64;100.00
10638;BME280;47007;49.252;8.904;2024-01-30T02:11:16;101087.59;;;0.29;100.00
10638;BME280;47007;49.252;8.904;2024-01-30T02:11:58;101155.94;;;0.65;100.00
10638;BME280;47007;49.252;8.904;2024-01-30T02:12:40;101045.69;;;0.02;100.00
10638;BME280;47007;49.252;8.904;2024-01-30T02:13:21;101171.56;;;0.81;100.00
10638;BME280;47007;49.252;8.904;2024-01-30T02:14:04;101116.94;;;0.48;100.00
10638;BME280;47007;49.252;8.904;2024-01-30T02:14:47;101121.66;;;0.42;100.00
10638;BME280;47007;49.252;8.904;2024-01-30T02:15:29;101192.75;;;0.91;100.00
10638;BME280;47007;49.252;8.904;2024-01-30T02:16:11;101149.13;;;0.63;100.00
10638;BME280;47007;49.252;8.904;2024-01-30T02:16:53;101064.06;;;0.15;100.00
10638;BME280;47007;49.252;8.904;2024-01-30T02:17:34;101175.09;;;0.80;100.00
10638;BME280;47007;49.252;8.904;2024-01-30T02:18:16;101086.94;;;0.25;100.00
10638;BME280;47007;49.252;8.904;2024-01-30T02:19:01;101040.38;;;0.04;100.00
10638;BME280;47007;49.252;8.904;2024-01-30T02:19:50;101191.50;;;0.98;100.00
10638;BME280;47007;49.252;8.904;2024-01-30T02:20:34;101196.59;;;0.99;100.00
10638;BME280;47007;49.252;8.904;2024-01-30T02:21:17;101139.44;;;0.65;100.00
10638;BME280;47007;49.252;8.904;2024-01-30T02:21:59;101089.59;;;0.40;100.00
10638;BME280;47007;49.252;8.904;2024-01-30T02:22:41;101140.03;;;0.70;100.00
10638;BME280;47007;49.252;8.904;2024-01-30T02:23:24;101202.25;;;1.07;100.00
10638;BME280;47007;49.252;8.904;2024-01-30T02:24:07;101107.84;;;0.55;100.00
10638;BME280;47007;49.252;8.904;2024-01-30T02:24:49;101143.88;;;0.79;100.00
10638;BME280;47007;49.252;8.904;2024-01-30T02:25:33;101187.69;;;1.03;100.00
10638;BME280;47007;49.252;8.904;2024-01-30T02:26:15;101142.47;;;0.73;100.00
10638;BME280;47007;49.252;8.904;2024-01-30T02:26:57;101132.38;;;0.67;100.00
10638;BME280;47007;49.252;8.904;2024-01-30T02:27:38;101092.81;;;0.29;100.00
10638;BME280;47007;49.252;8.904;2024-01-30T02:28:20;101206.25;;;0.99;100.00
10638;BME280;47007;49.252;8.904;2024-01-30T02:29:02;101154.59;;;0.74;100.00
10638;BME280;47007;49.252;8.904;2024-01-30T02:29:44;101190.06;;;0.92;100.00
10638;BME280;47007;49.252;8.904;2024-01-30T02:30:25;101164.19;;;0.74;100.00
10638;BME280;47007;49.252;8.904;2024-01-30T02:31:07;101166.28;;;0.67;100.00
10638;BME280;47007;49.252;8.904;2024-01-30T02:31:49;101111.59;;;0.35;100.00
10638;BME280;47007;49.252;8.904;2024-01-30T02:32:31;101196.28;;;0.90;100.00
10638;BME280;47007;49.252;8.904;2024-01-30T02:33:13;101172.19;;;0.70;100.00
10638;BME280;47007;49.252;8.904;2024-01-30T02:33:55;101179.41;;;0.81;100.00
10638;BME280;47007;49.252;8.904;2024-01-30T02:34:36;101162.69;;;0.69;100.00
10638;BME280;47007;49.252;8.904;2024-01-30T02:35:18;101134.94;;;0.53;100.00
10638;BME280;47007;49.252;8.904;2024-01-30T02:36:00;101185.38;;;0.83;100.00
10638;BME280;47007;49.252;8.904;2024-01-30T02:36:42;101191.06;;;0.90;100.00
10638;BME280;47007;49.252;8.904;2024-01-30T02:37:25;101125.78;;;0.46;100.00
10638;BME280;47007;49.252;8.904;2024-01-30T02:38:07;101106.38;;;0.35;100.00
10638;BME280;47007;49.252;8.904;2024-01-30T02:38:48;101133.00;;;0.56;100.00
10638;BME280;47007;49.252;8.904;2024-01-30T02:39:30;101117.97;;;0.46;100.00
10638;BME280;47007;49.252;8.904;2024-01-30T02:40:12;101048.28;;;0.02;100.00
10638;BME280;47007;49.252;8.904;2024-01-30T02:40:54;101071.06;;;0.14;100.00
10638;BME280;47007;49.252;8.904;2024-01-30T02:41:36;101168.97;;;0.81;100.00
10638;BME280;47007;49.252;8.904;2024-01-30T02:42:18;101191.75;;;0.93;100.00
10638;BME280;47007;49.252;8.904;2024-01-30T02:43:01;101180.16;;;0.83;100.00
10638;BME280;47007;49.252;8.904;2024-01-30T02:43:43;101191.59;;;0.96;100.00
10638;BME280;47007;49.252;8.904;2024-01-30T02:44:25;101083.91;;;0.33;100.00
10638;BME280;47007;49.252;8.904;2024-01-30T02:45:07;101202.88;;;0.97;100.00
10638;BME280;47007;49.252;8.904;2024-01-30T02:45:49;101185.09;;;0.88;100.00
10638;BME280;47007;49.252;8.904;2024-01-30T02:46:31;101171.50;;;0.83;100.00
10638;BME280;47007;49.252;8.904;2024-01-30T02:47:13;101121.13;;;0.51;100.00
10638;BME280;47007;49.252;8.904;2024-01-30T02:47:55;101144.84;;;0.62;100.00
10638;BME280;47007;49.252;8.904;2024-01-30T02:48:36;101166.28;;;0.67;100.00
10638;BME280;47007;49.252;8.904;2024-01-30T02:49:20;101126.31;;;0.37;100.00
10638;BME280;47007;49.252;8.904;2024-01-30T02:50:03;101188.75;;;0.85;100.00
10638;BME280;47007;49.252;8.904;2024-01-30T02:50:46;101169.06;;;0.64;100.00
10638;BME280;47007;49.252;8.904;2024-01-30T02:51:28;101192.44;;;0.81;100.00
10638;BME280;47007;49.252;8.904;2024-01-30T02:52:10;101192.06;;;0.73;100.00
10638;BME280;47007;49.252;8.904;2024-01-30T02:52:51;101189.84;;;0.81;100.00
10638;BME280;47007;49.252;8.904;2024-01-30T02:53:33;101059.00;;;-0.03;100.00
10638;BME280;47007;49.252;8.904;2024-01-30T02:54:15;101028.25;;;-0.27;100.00
10638;BME280;47007;49.252;8.904;2024-01-30T02:54:57;101157.47;;;0.54;100.00
10638;BME280;47007;49.252;8.904;2024-01-30T02:55:38;101182.25;;;0.77;100.00
10638;BME280;47007;49.252;8.904;2024-01-30T02:56:20;101129.59;;;0.24;100.00
10638;BME280;47007;49.252;8.904;2024-01-30T02:57:02;101085.38;;;0.07;100.00
10638;BME280;47007;49.252;8.904;2024-01-30T02:57:44;101085.38;;;0.07;100.00
10638;BME280;47007;49.252;8.904;2024-01-30T02:58:26;101070.25;;;-0.02;100.00
10638;BME280;47007;49.252;8.904;2024-01-30T02:59:07;101104.69;;;0.19;100.00
10638;BME280;47007;49.252;8.904;2024-01-30T02:59:49;101158.31;;;0.54;100.00
10638;BME280;47007;49.252;8.904;2024-01-30T03:00:31;101117.28;;;0.26;100.00
10638;BME280;47007;49.252;8.904;2024-01-30T03:01:15;101137.66;;;0.35;100.00
10638;BME280;47007;49.252;8.904;2024-01-30T03:01:57;101011.53;;;-0.39;100.00
10638;BME280;47007;49.252;8.904;2024-01-30T03:02:39;101070.56;;;-0.08;100.00
10638;BME280;47007;49.252;8.904;2024-01-30T03:03:21;101113.44;;;0.18;100.00
10638;BME280;47007;49.252;8.904;2024-01-30T03:04:03;101101.78;;;0.09;100.00
10638;BME280;47007;49.252;8.904;2024-01-30T03:04:45;101133.78;;;0.27;100.00
10638;BME280;47007;49.252;8.904;2024-01-30T03:05:27;101184.72;;;0.64;100.00
10638;BME280;47007;49.252;8.904;2024-01-30T03:06:09;101177.66;;;0.66;100.00
10638;BME280;47007;49.252;8.904;2024-01-30T03:06:50;101159.59;;;0.47;100.00
10638;BME280;47007;49.252;8.904;2024-01-30T03:07:33;101091.19;;;0.12;100.00
10638;BME280;47007;49.252;8.904;2024-01-30T03:08:15;101173.19;;;0.68;100.00
10638;BME280;47007;49.252;8.904;2024-01-30T03:08:57;101188.16;;;0.80;100.00
10638;BME280;47007;49.252;8.904;2024-01-30T03:09:38;101125.34;;;0.38;100.00
10638;BME280;47007;49.252;8.904;2024-01-30T03:10:22;101124.44;;;0.39;100.00
10638;BME280;47007;49.252;8.904;2024-01-30T03:11:04;101038.31;;;-0.06;100.00
10638;BME280;47007;49.252;8.904;2024-01-30T03:11:46;101127.56;;;0.45;100.00
10638;BME280;47007;49.252;8.904;2024-01-30T03:12:27;101155.09;;;0.65;100.00
10638;BME280;47007;49.252;8.904;2024-01-30T03:13:09;101009.56;;;-0.20;100.00
10638;BME280;47007;49.252;8.904;2024-01-30T03:13:51;101132.41;;;0.51;100.00
10638;BME280;47007;49.252;8.904;2024-01-30T03:14:33;101105.53;;;0.35;100.00
10638;BME280;47007;49.252;8.904;2024-01-30T03:15:14;101151.22;;;0.72;100.00
10638;BME280;47007;49.252;8.904;2024-01-30T03:15:56;101175.41;;;0.90;100.00
10638;BME280;47007;49.252;8.904;2024-01-30T03:16:38;101083.06;;;0.32;100.00
10638;BME280;47007;49.252;8.904;2024-01-30T03:17:20;101097.19;;;0.28;100.00
10638;BME280;47007;49.252;8.904;2024-01-30T03:18:02;101174.78;;;0.86;100.00
10638;BME280;47007;49.252;8.904;2024-01-30T03:18:47;101063.44;;;0.11;100.00
10638;BME280;47007;49.252;8.904;2024-01-30T03:19:30;101062.84;;;0.06;100.00
10638;BME280;47007;49.252;8.904;2024-01-30T03:20:11;101146.13;;;0.55;100.00
10638;BME280;47007;49.252;8.904;2024-01-30T03:20:53;101098.31;;;0.24;100.00
10638;BME280;47007;49.252;8.904;2024-01-30T03:21:35;101141.50;;;0.44;100.00
10638;BME280;47007;49.252;8.904;2024-01-30T03:22:17;101115.88;;;0.21;100.00
10638;BME280;47007;49.252;8.904;2024-01-30T03:23:00;101094.13;;;0.06;100.00
10638;BME280;47007;49.252;8.904;2024-01-30T03:23:41;101128.75;;;0.24;100.00
10638;BME280;47007;49.252;8.904;2024-01-30T03:24:23;101182.19;;;0.62;100.00
10638;BME280;47007;49.252;8.904;2024-01-30T03:25:05;101197.13;;;0.60;100.00
10638;BME280;47007;49.252;8.904;2024-01-30T03:25:48;101179.88;;;0.58;100.00
10638;BME280;47007;49.252;8.904;2024-01-30T03:26:29;101182.66;;;0.55;100.00
10638;BME280;47007;49.252;8.904;2024-01-30T03:27:11;101129.44;;;0.12;100.00
10638;BME280;47007;49.252;8.904;2024-01-30T03:27:53;101045.19;;;-0.36;100.00
10638;BME280;47007;49.252;8.904;2024-01-30T03:28:35;101006.38;;;-0.56;100.00
10638;BME280;47007;49.252;8.904;2024-01-30T03:29:16;101183.94;;;0.48;100.00
10638;BME280;47007;49.252;8.904;2024-01-30T03:29:58;101143.88;;;0.17;100.00
10638;BME280;47007;49.252;8.904;2024-01-30T03:30:40;101145.81;;;0.14;100.00
10638;BME280;47007;49.252;8.904;2024-01-30T03:31:22;101026.97;;;-0.52;100.00
10638;BME280;47007;49.252;8.904;2024-01-30T03:32:04;101068.06;;;-0.25;100.00
10638;BME280;47007;49.252;8.904;2024-01-30T03:32:46;101113.44;;;0.02;100.00
10638;BME280;47007;49.252;8.904;2024-01-30T03:33:27;101180.72;;;0.43;100.00
10638;BME280;47007;49.252;8.904;2024-01-30T03:34:09;101147.00;;;0.08;100.00
10638;BME280;47007;49.252;8.904;2024-01-30T03:34:51;101166.34;;;0.35;100.00
10638;BME280;47007;49.252;8.904;2024-01-30T03:35:33;101097.41;;;-0.06;100.00
10638;BME280;47007;49.252;8.904;2024-01-30T03:36:15;101147.19;;;0.21;100.00
10638;BME280;47007;49.252;8.904;2024-01-30T03:36:57;101187.19;;;0.51;100.00
10638;BME280;47007;49.252;8.904;2024-01-30T03:37:39;101076.97;;;-0.14;100.00
10638;BME280;47007;49.252;8.904;2024-01-30T03:38:21;101133.47;;;0.17;100.00
10638;BME280;47007;49.252;8.904;2024-01-30T03:39:02;101116.28;;;0.13;100.00
10638;BME280;47007;49.252;8.904;2024-01-30T03:39:44;101062.34;;;-0.16;100.00
10638;BME280;47007;49.252;8.904;2024-01-30T03:40:26;101185.84;;;0.60;100.00